SGEN/ENO METAR and TAF weather

Enter ICAO airport designator
Station Type Date Time Source
SGEN METAR 2022/01/28 21:00 UTC NOAA

SGEN 282100Z 09008KT 9999 SCT033 31/15 Q1005


Station Type Date Time Source
SGEN Decoded METAR 2022/01/28 21:00 UTC NOAA

Encarnacion, Paraguay (SGEN) 27-19S 055-50W 91M
Jan 28, 2022 - 04:00 PM EST / 2022.01.28 2100 UTC
Wind: from the E (090 degrees) at 9 MPH (8 KT):0
Visibility: greater than 7 mile(s):0
Sky conditions: partly cloudy
Temperature: 87 F (31 C)
Dew Point: 59 F (15 C)
Relative Humidity: 37%
Pressure (altimeter): 29.68 in. Hg (1005 hPa)
ob: SGEN 282100Z 09008KT 9999 SCT033 31/15 Q1005
cycle: 21

Station Type Date Time Source
SGEN TAF 2022/01/28 18:00 UTC NOAA

TAF SGEN 281700Z 2818/2918 09006KT 9999 SCT033 TX30/2819Z TN20/2909Z
BECMG 2822/2901 CAVOK

Example: see airport list